Time;durP1;ratioP1;P1;durP2;ratioP2;P2;SDS_P1;SDS_P2;PMS_P1;PMS_P2;Temp;Humidity;BMP_temperature;BMP_pressure;BME280_temperature;BME280_humidity;BME280_pressure;Samples;Min_cycle;Max_cycle;Signal;HPM_P1;HPM_P2
2020/12/13 00:01:41;;;;;;;39.53;24.15;;;;;;;6.88;100.00;99429.88;10490461;28;20049;-73
2020/12/13 00:06:42;;;;;;;39.40;23.17;;;;;;;6.89;100.00;99428.13;10491031;28;20420;-73
2020/12/13 00:11:43;;;;;;;37.33;24.38;;;;;;;6.89;100.00;99433.31;10498221;28;20048;-73
2020/12/13 00:16:44;;;;;;;38.40;23.63;;;;;;;6.88;100.00;99442.03;10498569;28;20052;-74
2020/12/13 00:21:53;;;;;;;35.75;22.50;;;;;;;6.87;100.00;99437.75;10497966;28;20082;-74
2020/12/13 00:26:54;;;;;;;30.48;20.20;;;;;;;6.80;100.00;99445.06;10498175;28;20056;-73
2020/12/13 00:31:55;;;;;;;35.30;22.52;;;;;;;6.82;100.00;99444.97;10496740;28;20041;-73
2020/12/13 00:36:56;;;;;;;36.95;21.73;;;;;;;6.79;100.00;99448.59;10498119;28;20083;-73
2020/12/13 00:41:57;;;;;;;34.47;21.77;;;;;;;6.79;100.00;99459.00;10497335;28;20426;-73
2020/12/13 00:46:57;;;;;;;35.80;20.98;;;;;;;6.77;100.00;99463.44;10497663;28;20531;-74
2020/12/13 00:52:04;;;;;;;33.38;19.98;;;;;;;6.77;100.00;99466.03;10497002;28;20056;-74
2020/12/13 00:57:04;;;;;;;31.58;19.90;;;;;;;6.70;100.00;99474.25;10497027;28;20060;-74
2020/12/13 01:02:05;;;;;;;38.45;21.15;;;;;;;6.69;100.00;99472.56;10495964;28;20044;-74
2020/12/13 01:07:07;;;;;;;35.85;22.83;;;;;;;6.79;100.00;99484.16;10478699;28;20094;-74
2020/12/13 01:12:07;;;;;;;36.38;21.95;;;;;;;6.71;100.00;99487.16;10496463;28;20055;-75
2020/12/13 01:17:08;;;;;;;34.67;19.75;;;;;;;6.69;100.00;99483.81;10478604;28;20048;-74
2020/12/13 01:22:09;;;;;;;33.47;20.60;;;;;;;6.68;100.00;99486.50;10495851;28;20045;-74
2020/12/13 01:27:10;;;;;;;31.65;20.17;;;;;;;6.67;100.00;99495.19;10496595;28;20531;-73
2020/12/13 01:32:11;;;;;;;38.78;22.10;;;;;;;6.69;100.00;99507.22;10494638;28;20062;-73
2020/12/13 01:37:13;;;;;;;38.70;23.17;;;;;;;6.76;100.00;99511.16;10495550;28;20048;-73
2020/12/13 01:42:13;;;;;;;34.03;22.08;;;;;;;6.70;100.00;99519.31;10494908;28;20052;-73
2020/12/13 01:47:18;;;;;;;34.42;22.13;;;;;;;6.73;100.00;99528.69;10495600;28;20135;-74
2020/12/13 01:57:29;;;;;;;37.78;21.65;;;;;;;6.69;100.00;99533.22;10494331;28;20048;-73
2020/12/13 02:02:35;;;;;;;40.63;22.65;;;;;;;6.77;100.00;99553.59;10493738;28;20045;-73
2020/12/13 02:07:37;;;;;;;34.63;22.58;;;;;;;6.74;100.00;99546.81;10493954;28;20054;-73
2020/12/13 02:12:38;;;;;;;34.72;22.00;;;;;;;6.75;100.00;99545.06;10494406;28;20040;-74
2020/12/13 02:17:41;;;;;;;36.17;22.15;;;;;;;6.70;100.00;99557.47;10493493;28;20048;-74
2020/12/13 02:22:47;;;;;;;33.47;20.77;;;;;;;6.68;100.00;99554.94;10494322;28;20045;-74
2020/12/13 02:27:49;;;;;;;36.42;22.02;;;;;;;6.78;100.00;99566.53;10478021;28;20170;-74
2020/12/13 02:32:50;;;;;;;36.38;20.67;;;;;;;6.68;100.00;99567.09;10492663;28;20526;-74
2020/12/13 02:37:51;;;;;;;33.67;20.73;;;;;;;6.75;100.00;99573.66;10493635;28;20056;-74
2020/12/13 02:42:52;;;;;;;38.22;22.92;;;;;;;6.75;100.00;99574.50;10493234;28;20040;-74
2020/12/13 02:47:53;;;;;;;35.55;21.95;;;;;;;6.74;100.00;99583.22;10493045;28;20210;-74
2020/12/13 02:52:54;;;;;;;35.83;21.58;;;;;;;6.69;100.00;99582.63;10492926;28;20098;-74
2020/12/13 02:57:55;;;;;;;38.55;21.85;;;;;;;6.67;100.00;99584.44;10492748;28;20773;-74
2020/12/13 03:02:55;;;;;;;31.55;19.48;;;;;;;6.69;100.00;99590.44;10491876;28;20048;-74
2020/12/13 03:07:58;;;;;;;37.97;21.08;;;;;;;6.68;100.00;99588.75;10492123;28;20082;-74
2020/12/13 03:13:00;;;;;;;35.42;20.98;;;;;;;6.68;100.00;99593.94;10492644;28;20098;-74
2020/12/13 03:18:01;;;;;;;34.47;19.92;;;;;;;6.66;100.00;99603.56;10491913;28;20592;-74
2020/12/13 03:23:02;;;;;;;35.47;20.95;;;;;;;6.79;100.00;99617.63;10492371;28;20049;-75
2020/12/13 03:28:03;;;;;;;32.22;19.25;;;;;;;6.77;100.00;99631.63;10491939;28;20497;-74
2020/12/13 03:33:04;;;;;;;31.73;19.40;;;;;;;6.82;100.00;99625.28;10490935;28;20041;-74
2020/12/13 03:38:05;;;;;;;31.90;18.98;;;;;;;6.75;100.00;99639.53;10491780;28;20057;-74
2020/12/13 03:43:06;;;;;;;30.00;18.52;;;;;;;6.77;100.00;99644.63;10495252;28;20095;-74
2020/12/13 03:48:07;;;;;;;30.73;18.27;;;;;;;6.79;100.00;99656.66;10500045;28;20143;-73
2020/12/13 03:53:10;;;;;;;30.02;17.77;;;;;;;6.79;100.00;99667.06;10499618;28;20044;-74
2020/12/13 03:58:11;;;;;;;27.35;16.25;;;;;;;6.79;100.00;99671.41;10499540;28;20492;-73
2020/12/13 04:03:12;;;;;;;33.22;16.33;;;;;;;6.74;100.00;99669.06;10498249;28;20044;-73
2020/12/13 04:08:13;;;;;;;25.98;16.15;;;;;;;6.72;100.00;99667.44;10498899;28;20113;-74
2020/12/13 04:13:14;;;;;;;29.38;16.48;;;;;;;6.73;100.00;99664.75;10499588;28;20110;-74
2020/12/13 04:18:15;;;;;;;28.77;16.77;;;;;;;6.72;100.00;99670.88;10499463;28;20048;-74
2020/12/13 04:23:15;;;;;;;30.27;16.83;;;;;;;6.70;100.00;99672.72;10497990;28;20052;-73
2020/12/13 04:28:16;;;;;;;30.08;17.92;;;;;;;6.69;100.00;99683.19;10498383;28;20079;-74
2020/12/13 04:33:18;;;;;;;27.35;15.70;;;;;;;6.66;100.00;99689.38;10497070;28;20492;-74
2020/12/13 04:38:20;;;;;;;27.48;15.98;;;;;;;6.68;100.00;99695.34;10497828;28;20072;-74
2020/12/13 04:43:22;;;;;;;23.00;14.77;;;;;;;6.66;100.00;99707.56;10497790;28;20048;-74
2020/12/13 04:48:23;;;;;;;23.35;14.20;;;;;;;6.66;100.00;99711.94;10497500;28;20097;-74
2020/12/13 04:53:32;;;;;;;23.23;13.52;;;;;;;6.66;100.00;99710.19;10496234;28;20612;-74
2020/12/13 04:58:33;;;;;;;25.00;12.77;;;;;;;6.65;100.00;99718.91;10497373;28;20064;-74
2020/12/13 05:03:35;;;;;;;20.30;12.45;;;;;;;6.65;100.00;99721.53;10478117;28;20484;-72
2020/12/13 05:08:36;;;;;;;21.48;11.98;;;;;;;6.65;100.00;99737.13;10496281;28;20491;-73
2020/12/13 05:13:38;;;;;;;18.52;11.32;;;;;;;6.64;100.00;99740.63;10496702;28;20044;-73
2020/12/13 05:18:40;;;;;;;19.33;11.82;;;;;;;6.64;100.00;99751.03;10496759;28;20052;-73
2020/12/13 05:23:46;;;;;;;21.67;10.30;;;;;;;6.60;100.00;99746.91;10496583;28;20048;-73
2020/12/13 05:28:49;;;;;;;16.70;10.23;;;;;;;6.63;100.00;99744.13;10496123;28;20059;-75
2020/12/13 05:34:03;;;;;;;16.08;9.40;;;;;;;6.61;100.00;99751.16;10476703;28;20071;-74
2020/12/13 05:39:04;;;;;;;16.27;9.70;;;;;;;6.63;100.00;99759.75;10494957;28;20455;-73
2020/12/13 05:44:38;;;;;;;17.27;9.20;;;;;;;6.64;100.00;99766.63;10494733;28;20094;-74
2020/12/13 05:50:22;;;;;;;16.92;9.90;;;;;;;6.70;100.00;99765.50;10494742;28;20109;-73
2020/12/13 05:55:19;;;;;;;19.77;9.18;;;;;;;6.69;100.00;99775.06;10494685;28;20044;-74
2020/12/13 06:00:20;;;;;;;17.23;9.30;;;;;;;6.60;100.00;99780.72;10493319;28;20548;-74
2020/12/13 06:05:22;;;;;;;17.35;9.50;;;;;;;6.59;100.00;99794.63;10493667;28;20647;-74
2020/12/13 06:10:26;;;;;;;16.83;9.20;;;;;;;6.60;100.00;99793.69;10493601;28;20049;-74
2020/12/13 06:15:28;;;;;;;17.35;9.75;;;;;;;6.65;100.00;99799.53;10493654;28;20552;-74
2020/12/13 06:20:31;;;;;;;16.45;9.27;;;;;;;6.58;100.00;99808.53;10492871;28;20106;-74
2020/12/13 06:25:32;;;;;;;15.73;8.95;;;;;;;6.58;100.00;99818.91;10493458;28;20052;-73
2020/12/13 06:30:36;;;;;;;14.32;8.95;;;;;;;6.70;100.00;99820.94;10491417;28;20044;-74
2020/12/13 06:35:37;;;;;;;15.27;9.10;;;;;;;6.62;100.00;99830.00;10493176;28;20040;-74
2020/12/13 06:40:39;;;;;;;13.02;8.02;;;;;;;6.65;100.00;99841.13;10492377;28;20457;-73
2020/12/13 06:45:40;;;;;;;16.88;9.13;;;;;;;6.69;100.00;99842.66;10492715;28;20048;-74
2020/12/13 06:50:42;;;;;;;15.95;8.07;;;;;;;6.65;100.00;99851.53;10491897;28;20055;-74
2020/12/13 06:55:43;;;;;;;16.13;8.35;;;;;;;6.63;100.00;99862.91;10492665;28;20040;-74
2020/12/13 07:00:50;;;;;;;13.55;8.43;;;;;;;6.60;100.00;99863.91;10473529;28;20455;-74
2020/12/13 07:05:56;;;;;;;15.80;8.70;;;;;;;6.60;100.00;99868.25;10485569;28;20124;-73
2020/12/13 07:10:59;;;;;;;14.52;8.45;;;;;;;6.58;100.00;99886.53;10493348;28;20060;-74
2020/12/13 07:16:05;;;;;;;14.27;8.48;;;;;;;6.59;100.00;99888.22;10494069;28;20408;-73
2020/12/13 07:21:06;;;;;;;16.73;9.30;;;;;;;6.65;100.00;99900.09;10506035;28;20044;-74
2020/12/13 07:26:08;;;;;;;16.58;9.38;;;;;;;6.59;100.00;99906.41;10488524;28;20059;-74
2020/12/13 07:31:10;;;;;;;18.52;9.13;;;;;;;6.61;100.00;99912.38;10505277;28;20068;-72
2020/12/13 07:36:12;;;;;;;14.57;8.10;;;;;;;6.60;100.00;99921.13;10506089;28;20144;-72
2020/12/13 07:41:21;;;;;;;13.32;7.18;;;;;;;6.73;100.00;99926.56;10505681;28;20527;-72
2020/12/13 07:46:29;;;;;;;16.23;7.97;;;;;;;6.74;100.00;99934.31;10506083;28;20131;-72
2020/12/13 07:51:37;;;;;;;16.02;7.63;;;;;;;6.72;100.00;99930.94;10487931;28;20106;-72
2020/12/13 07:56:38;;;;;;;11.25;6.78;;;;;;;6.76;100.00;99952.44;10506122;28;20052;-72
2020/12/13 08:01:40;;;;;;;14.73;7.43;;;;;;;6.78;100.00;99951.47;10504795;28;20057;-72
2020/12/13 08:06:42;;;;;;;12.45;7.15;;;;;;;6.83;100.00;99953.84;10505789;28;20052;-72
2020/12/13 08:11:44;;;;;;;11.05;6.10;;;;;;;6.90;100.00;99959.63;10505692;28;20048;-73
2020/12/13 08:16:49;;;;;;;11.77;7.47;;;;;;;6.99;100.00;99964.41;10505273;28;20129;-72
2020/12/13 08:21:59;;;;;;;15.05;8.02;;;;;;;7.00;100.00;99976.50;10487478;28;20055;-72
2020/12/13 08:27:01;;;;;;;12.43;8.00;;;;;;;6.96;100.00;99991.38;10505142;28;20048;-72
2020/12/13 08:32:11;;;;;;;12.32;7.22;;;;;;;6.94;100.00;99993.22;10496746;28;20079;-72
2020/12/13 08:37:13;;;;;;;18.05;8.32;;;;;;;6.97;100.00;100007.84;10498295;28;20664;-72
2020/12/13 08:42:22;;;;;;;12.93;7.80;;;;;;;6.98;100.00;100005.19;10497703;28;20052;-73
2020/12/13 08:47:30;;;;;;;16.42;9.02;;;;;;;6.94;100.00;100008.00;10498002;28;20060;-72
2020/12/13 08:52:35;;;;;;;13.25;8.55;;;;;;;7.03;100.00;100017.97;10497728;28;20052;-72
2020/12/13 08:57:45;;;;;;;12.45;7.13;;;;;;;7.05;100.00;100027.41;10497178;28;20397;-73
2020/12/13 09:02:59;;;;;;;14.35;7.68;;;;;;;7.15;100.00;100027.81;10478328;28;20067;-72
2020/12/13 09:08:01;;;;;;;14.20;8.00;;;;;;;7.14;100.00;100039.16;10496839;28;20052;-71
2020/12/13 09:13:07;;;;;;;13.70;8.70;;;;;;;7.18;100.00;100048.50;10496189;28;20045;-71
2020/12/13 09:18:10;;;;;;;14.20;7.68;;;;;;;7.17;100.00;100063.25;10496692;28;20059;-71
2020/12/13 09:23:19;;;;;;;17.88;8.23;;;;;;;7.19;100.00;100071.00;10478971;28;20125;-71
2020/12/13 09:28:21;;;;;;;16.23;8.40;;;;;;;7.23;100.00;100076.00;10495177;28;20052;-71
2020/12/13 09:33:22;;;;;;;12.52;7.40;;;;;;;7.21;100.00;100090.03;10494882;28;20117;-71
2020/12/13 09:38:23;;;;;;;13.10;7.00;;;;;;;7.20;100.00;100077.91;10493687;28;20465;-71
2020/12/13 09:43:24;;;;;;;14.05;7.72;;;;;;;7.27;100.00;100098.38;10495030;28;20044;-71
2020/12/13 09:48:26;;;;;;;15.85;8.07;;;;;;;7.29;100.00;100085.31;10495685;28;20048;-70
2020/12/13 09:53:27;;;;;;;11.90;7.03;;;;;;;7.21;100.00;100090.84;10495265;28;20098;-70
2020/12/13 09:58:28;;;;;;;12.45;6.00;;;;;;;7.27;100.00;100093.16;10491546;28;20064;-70
2020/12/13 10:03:29;;;;;;;13.75;6.97;;;;;;;7.36;100.00;100096.28;10493939;28;20049;-71
2020/12/13 10:13:49;;;;;;;11.20;5.88;;;;;;;7.41;100.00;100105.56;10496304;28;20484;-70
2020/12/13 10:18:50;;;;;;;9.95;5.65;;;;;;;7.32;100.00;100098.16;10494537;28;20048;-69
2020/12/13 10:23:52;;;;;;;12.10;5.78;;;;;;;7.49;100.00;100098.25;10494109;28;20052;-70
2020/12/13 10:28:54;;;;;;;10.38;5.25;;;;;;;7.59;100.00;100099.50;10493828;28;20488;-69
2020/12/13 10:33:56;;;;;;;11.45;5.90;;;;;;;7.81;98.39;100090.69;10493029;28;20045;-70
2020/12/13 10:38:57;;;;;;;10.30;4.47;;;;;;;7.94;97.06;100090.00;10494222;28;20074;-70
2020/12/13 10:43:58;;;;;;;11.15;4.47;;;;;;;8.11;96.17;100086.59;10493585;28;20049;-71
2020/12/13 10:48:59;;;;;;;8.30;3.25;;;;;;;8.04;92.94;100082.56;10493264;28;20098;-71
2020/12/13 10:54:00;;;;;;;7.53;3.25;;;;;;;8.04;92.50;100078.22;10492853;28;20052;-70
2020/12/13 10:59:01;;;;;;;6.95;3.15;;;;;;;8.14;91.07;100073.38;10493362;28;20098;-70
2020/12/13 11:04:02;;;;;;;9.55;2.90;;;;;;;8.11;91.58;100076.16;10492352;28;20045;-70
2020/12/13 11:09:04;;;;;;;8.35;2.90;;;;;;;8.16;89.42;100075.00;10490576;28;20079;-70
2020/12/13 11:14:05;;;;;;;6.22;2.83;;;;;;;8.19;89.29;100066.19;10492331;28;20052;-70
2020/12/13 11:19:06;;;;;;;6.20;2.30;;;;;;;8.15;88.14;100069.88;10492775;28;20078;-70
2020/12/13 11:24:07;;;;;;;6.53;2.40;;;;;;;8.26;85.93;100051.94;10492490;28;20078;-70
2020/12/13 11:29:07;;;;;;;8.10;3.22;;;;;;;8.08;87.47;100055.44;10492760;28;20059;-70
2020/12/13 11:34:08;;;;;;;6.93;3.20;;;;;;;8.20;87.90;100057.44;10491577;28;20060;-68
2020/12/13 11:39:10;;;;;;;10.95;4.07;;;;;;;8.36;88.66;100063.63;10492620;28;20053;-70
2020/12/13 11:44:11;;;;;;;8.30;4.00;;;;;;;8.26;87.34;100069.34;10492345;28;20102;-70
2020/12/13 11:49:12;;;;;;;10.07;3.97;;;;;;;8.24;87.31;100068.56;10492235;28;20098;-70
2020/12/13 11:54:14;;;;;;;9.43;3.58;;;;;;;8.49;85.01;100076.88;10492001;28;20052;-70
2020/12/13 11:59:19;;;;;;;11.63;4.45;;;;;;;8.85;85.68;100068.91;10491806;28;20518;-69
2020/12/13 12:04:20;;;;;;;6.88;3.90;;;;;;;9.20;83.39;100067.88;10494922;28;20046;-70
2020/12/13 12:09:21;;;;;;;7.93;3.85;;;;;;;9.40;82.89;100075.47;10499427;28;20052;-70
2020/12/13 12:14:22;;;;;;;7.95;3.47;;;;;;;9.39;81.29;100083.41;10499259;28;20048;-70
2020/12/13 12:19:23;;;;;;;8.60;3.72;;;;;;;9.30;81.76;100084.75;10499178;28;20079;-70
2020/12/13 12:24:25;;;;;;;8.13;3.97;;;;;;;9.10;81.12;100081.50;10478347;28;20045;-70
2020/12/13 12:29:26;;;;;;;11.05;5.15;;;;;;;8.95;82.21;100075.34;10498228;28;20063;-69
2020/12/13 12:34:27;;;;;;;8.98;4.07;;;;;;;8.87;82.20;100083.59;10491969;28;20049;-69
2020/12/13 12:39:28;;;;;;;10.65;4.05;;;;;;;8.67;81.61;100082.94;10489679;28;20049;-70
2020/12/13 12:44:29;;;;;;;10.63;4.68;;;;;;;8.38;84.24;100084.41;10470365;28;20666;-69
2020/12/13 12:49:30;;;;;;;7.47;3.45;;;;;;;8.23;83.36;100080.75;10495724;28;20071;-69
2020/12/13 12:54:31;;;;;;;7.20;2.50;;;;;;;8.15;81.24;100086.34;10498098;28;20120;-69
2020/12/13 12:59:38;;;;;;;8.65;2.40;;;;;;;8.06;79.75;100091.19;10497210;28;20178;-69
2020/12/13 13:04:44;;;;;;;7.40;2.50;;;;;;;7.84;81.07;100090.53;10493845;28;20049;-69
2020/12/13 13:09:57;;;;;;;6.38;2.65;;;;;;;7.81;80.68;100090.69;10479620;28;20401;-69
2020/12/13 13:15:01;;;;;;;6.93;2.97;;;;;;;7.81;81.42;100095.88;10490361;28;20067;-69
2020/12/13 13:20:04;;;;;;;10.00;4.32;;;;;;;7.90;80.56;100087.63;10492674;28;20390;-69
2020/12/13 13:25:05;;;;;;;16.65;7.63;;;;;;;7.79;80.68;100092.50;10489161;28;20473;-69
2020/12/13 13:30:12;;;;;;;14.27;7.13;;;;;;;7.81;81.35;100090.69;10476486;28;20048;-69
2020/12/13 13:35:13;;;;;;;13.65;5.32;;;;;;;7.83;82.10;100096.63;10487451;28;20052;-68
2020/12/13 13:40:14;;;;;;;12.77;5.93;;;;;;;7.92;81.83;100099.69;10496523;28;20411;-69
2020/12/13 13:50:46;;;;;;;11.68;5.28;;;;;;;7.77;79.65;100099.56;10479553;28;20075;-69
2020/12/13 14:00:54;;;;;;;8.63;3.30;;;;;;;7.46;78.58;100106.22;10494947;28;20037;-69
2020/12/13 14:06:00;;;;;;;16.70;7.00;;;;;;;7.29;81.08;100111.34;10494714;28;20048;-69
2020/12/13 14:11:01;;;;;;;12.63;5.75;;;;;;;7.20;80.53;100115.19;10494671;28;20083;-69
2020/12/13 14:16:02;;;;;;;12.32;4.80;;;;;;;7.12;81.32;100121.63;10494842;28;20091;-69
2020/12/13 14:21:03;;;;;;;8.45;3.22;;;;;;;6.98;82.63;100129.22;10494083;28;20488;-69
2020/12/13 14:26:04;;;;;;;7.65;3.33;;;;;;;6.90;81.89;100132.16;10489712;28;20040;-69
2020/12/13 14:31:08;;;;;;;7.72;3.38;;;;;;;6.73;83.39;100122.47;10492982;28;20058;-69
2020/12/13 14:36:09;;;;;;;10.65;4.30;;;;;;;6.68;83.70;100129.63;10493639;28;20048;-69
2020/12/13 14:41:11;;;;;;;8.52;4.13;;;;;;;6.52;84.04;100131.19;10493674;28;20052;-69
2020/12/13 14:46:14;;;;;;;8.75;3.70;;;;;;;6.38;84.42;100134.38;10493496;28;20056;-69
2020/12/13 14:51:16;;;;;;;10.68;4.30;;;;;;;6.29;84.80;100139.09;10492874;28;20440;-69
2020/12/13 14:56:19;;;;;;;10.88;4.18;;;;;;;6.19;86.26;100138.63;10493200;28;20102;-69
2020/12/13 15:01:21;;;;;;;9.23;4.85;;;;;;;6.09;87.35;100139.06;10492547;28;20071;-69
2020/12/13 15:06:24;;;;;;;10.15;5.78;;;;;;;6.01;88.43;100145.41;10489966;28;20413;-69
2020/12/13 15:11:30;;;;;;;10.73;6.40;;;;;;;5.94;88.79;100138.75;10498862;28;20051;-69
2020/12/13 15:21:55;;;;;;;13.63;6.15;;;;;;;5.84;89.27;100142.56;10492166;28;20139;-69
2020/12/13 15:26:56;;;;;;;15.98;6.05;;;;;;;5.82;89.77;100144.41;10493039;28;20106;-69
2020/12/13 15:31:57;;;;;;;18.77;9.05;;;;;;;5.83;90.72;100159.09;10491968;28;20048;-70
2020/12/13 15:36:58;;;;;;;19.75;9.20;;;;;;;5.82;90.71;100160.00;10493113;28;20080;-69
2020/12/13 15:41:59;;;;;;;18.25;8.40;;;;;;;5.88;90.26;100154.59;10501295;28;20424;-69
2020/12/13 15:47:00;;;;;;;15.90;7.63;;;;;;;5.87;91.08;100155.50;10501419;28;20087;-70
2020/12/13 15:52:01;;;;;;;16.52;6.88;;;;;;;5.88;91.91;100154.59;10500851;28;20144;-71
2020/12/13 15:57:02;;;;;;;13.10;6.15;;;;;;;5.88;93.00;100166.72;10500574;28;20506;-69
2020/12/13 16:02:03;;;;;;;13.05;5.38;;;;;;;5.90;93.78;100172.69;10499609;28;20102;-70
2020/12/13 16:07:13;;;;;;;10.30;4.63;;;;;;;5.91;93.47;100175.25;10500001;28;20121;-71
2020/12/13 16:12:15;;;;;;;11.27;4.88;;;;;;;5.93;93.80;100176.03;10499650;28;20463;-71
2020/12/13 16:17:16;;;;;;;10.18;4.93;;;;;;;5.95;93.96;100169.03;10499703;28;20055;-71
2020/12/13 16:22:17;;;;;;;13.00;5.72;;;;;;;5.97;94.21;100169.81;10499528;28;20127;-72
2020/12/13 16:27:18;;;;;;;14.35;5.55;;;;;;;5.95;94.40;100174.22;10500094;28;20139;-72
2020/12/13 16:32:19;;;;;;;12.38;5.53;;;;;;;5.91;95.53;100167.44;10498954;28;20040;-71
2020/12/13 16:37:21;;;;;;;15.40;8.05;;;;;;;5.88;96.01;100175.38;10496447;28;20060;-71
2020/12/13 16:42:33;;;;;;;19.70;11.32;;;;;;;5.81;96.48;100168.69;10498387;28;20044;-72
2020/12/13 16:47:45;;;;;;;18.35;10.20;;;;;;;5.78;95.91;100163.63;10498141;28;20049;-72
2020/12/13 16:58:06;;;;;;;26.35;12.00;;;;;;;5.71;97.30;100164.75;10495677;28;20071;-70
2020/12/13 17:03:07;;;;;;;15.38;9.32;;;;;;;5.65;98.49;100167.56;10493856;28;20054;-70
2020/12/13 17:08:08;;;;;;;15.02;8.60;;;;;;;5.62;97.99;100161.66;10497554;28;20041;-68
2020/12/13 17:13:09;;;;;;;17.08;9.32;;;;;;;5.62;98.24;100167.69;10497103;28;20470;-70
2020/12/13 17:18:11;;;;;;;17.40;8.95;;;;;;;5.67;98.31;100165.78;10495888;28;20071;-70
2020/12/13 17:23:12;;;;;;;17.30;8.60;;;;;;;5.67;97.41;100152.78;10494492;28;20051;-70
2020/12/13 17:28:16;;;;;;;15.43;8.45;;;;;;;5.72;97.60;100152.59;10497455;28;20056;-70
2020/12/13 17:33:17;;;;;;;22.80;11.52;;;;;;;5.69;96.85;100147.53;10496554;28;20051;-70
2020/12/13 17:38:21;;;;;;;21.77;11.18;;;;;;;5.63;98.10;100147.78;10496980;28;20052;-70
2020/12/13 17:43:23;;;;;;;23.15;12.35;;;;;;;5.51;98.65;100138.69;10495997;28;20492;-70
2020/12/13 17:48:25;;;;;;;26.48;13.98;;;;;;;5.39;98.08;100133.94;10496856;28;20097;-70
2020/12/13 17:58:52;;;;;;;36.60;19.05;;;;;;;5.28;98.73;100143.91;10497497;28;20053;-70
2020/12/13 18:03:53;;;;;;;28.27;13.98;;;;;;;5.19;99.91;100139.88;10494524;28;20394;-70
2020/12/13 18:08:54;;;;;;;19.92;9.93;;;;;;;5.15;100.00;100136.56;10495641;28;20045;-70
2020/12/13 18:13:54;;;;;;;22.30;11.65;;;;;;;5.09;100.00;100131.59;10495371;28;20109;-70
2020/12/13 18:18:56;;;;;;;20.33;12.07;;;;;;;5.01;100.00;100127.59;10495051;28;20079;-70
2020/12/13 18:23:57;;;;;;;24.75;13.55;;;;;;;4.89;100.00;100128.00;10500515;23;20934;-71
2020/12/13 18:29:00;;;;;;;22.52;13.02;;;;;;;4.87;100.00;100125.50;10452379;28;20132;-71
2020/12/13 18:34:03;;;;;;;30.25;16.55;;;;;;;4.75;100.00;100123.31;10443292;28;20044;-71
2020/12/13 18:39:04;;;;;;;34.28;17.00;;;;;;;4.73;100.00;100131.13;10493795;28;20045;-71
2020/12/13 18:44:05;;;;;;;33.95;18.83;;;;;;;4.82;100.00;100124.81;10493114;28;20040;-71
2020/12/13 18:49:06;;;;;;;30.27;17.33;;;;;;;4.76;100.00;100131.94;10493258;28;20400;-69
2020/12/13 18:54:07;;;;;;;35.03;19.95;;;;;;;4.74;100.00;100130.25;10492977;28;20052;-70
2020/12/13 18:59:10;;;;;;;33.97;20.85;;;;;;;4.79;100.00;100143.03;10493100;28;20101;-71
2020/12/13 19:09:16;;;;;;;31.98;17.35;;;;;;;4.66;100.00;100149.56;10493274;28;20044;-71
2020/12/13 19:14:17;;;;;;;30.77;17.65;;;;;;;4.60;100.00;100152.34;10492014;28;20052;-71
2020/12/13 19:19:18;;;;;;;30.58;17.35;;;;;;;4.52;100.00;100154.38;10493231;28;20052;-70
2020/12/13 19:24:22;;;;;;;30.02;17.73;;;;;;;4.45;100.00;100152.88;10491840;28;20156;-71
2020/12/13 19:29:23;;;;;;;30.35;17.23;;;;;;;4.50;100.00;100158.75;10492278;28;20064;-71
2020/12/13 19:34:28;;;;;;;32.75;18.83;;;;;;;4.43;100.00;100159.84;10491593;28;20075;-71
2020/12/13 19:39:29;;;;;;;31.05;17.25;;;;;;;4.40;100.00;100165.97;10492276;28;20470;-70
2020/12/13 19:44:30;;;;;;;33.20;20.75;;;;;;;4.36;100.00;100153.19;10492030;28;20091;-71
2020/12/13 19:49:31;;;;;;;36.72;22.05;;;;;;;4.25;100.00;100151.78;10492323;28;20049;-71
2020/12/13 19:54:32;;;;;;;37.05;22.45;;;;;;;4.15;100.00;100155.56;10474131;28;20090;-71
2020/12/13 19:59:33;;;;;;;40.90;24.77;;;;;;;4.12;100.00;100145.28;10493160;28;20056;-71
2020/12/13 20:04:34;;;;;;;42.70;25.92;;;;;;;4.06;100.00;100148.09;10491909;28;20144;-71
2020/12/13 20:09:35;;;;;;;45.33;24.83;;;;;;;4.11;100.00;100148.81;10492315;28;20059;-71
2020/12/13 20:15:04;;;;;;;39.20;22.75;;;;;;;4.09;100.00;100145.41;10491425;28;20048;-69
2020/12/13 20:31:52;;;;;;;47.08;25.75;;;;;;;4.16;100.00;100141.72;10497920;28;20461;-70
2020/12/13 21:03:41;;;;;;;51.85;27.35;;;;;;;4.13;100.00;100126.28;10493617;28;20044;-71
2020/12/13 21:18:49;;;;;;;40.65;23.90;;;;;;;4.07;100.00;100110.91;10496902;28;20048;-70
2020/12/13 21:39:30;;;;;;;37.92;21.15;;;;;;;3.73;100.00;100112.88;10495652;28;20070;-70
2020/12/13 21:44:31;;;;;;;39.50;22.52;;;;;;;3.67;100.00;100111.34;10495672;28;20052;-71
2020/12/13 21:55:07;;;;;;;39.90;22.63;;;;;;;3.37;100.00;100091.56;10494405;28;20044;-71
2020/12/13 22:05:53;;;;;;;44.10;24.65;;;;;;;3.12;100.00;100127.63;10495455;28;20056;-70
2020/12/13 22:17:44;;;;;;;33.85;19.63;;;;;;;2.86;100.00;100146.44;10464566;28;20467;-70
2020/12/13 22:26:42;;;;;;;30.63;16.45;;;;;;;2.66;100.00;100143.56;10493512;28;20101;-70
2020/12/13 22:31:44;;;;;;;33.45;18.40;;;;;;;2.46;100.00;100133.75;10493532;28;20052;-70
2020/12/13 22:36:46;;;;;;;31.98;18.65;;;;;;;2.35;100.00;100147.78;10493786;28;20403;-70
2020/12/13 22:41:49;;;;;;;25.33;15.02;;;;;;;2.30;100.00;100154.81;10493633;28;20945;-71
2020/12/13 22:46:50;;;;;;;27.90;15.45;;;;;;;2.22;100.00;100147.28;10492388;28;20036;-70
2020/12/13 22:51:51;;;;;;;28.77;16.98;;;;;;;2.11;100.00;100134.63;10492021;28;20059;-70
2020/12/13 22:56:53;;;;;;;30.23;16.88;;;;;;;2.01;100.00;100150.34;10484478;28;20052;-71
2020/12/13 23:01:54;;;;;;;28.85;14.95;;;;;;;1.92;100.00;100151.44;10491936;28;20070;-71
2020/12/13 23:06:56;;;;;;;33.22;17.35;;;;;;;1.88;100.00;100156.69;10487174;28;20492;-71
2020/12/13 23:11:57;;;;;;;26.42;15.30;;;;;;;1.81;100.00;100155.97;10469101;28;20059;-71
2020/12/13 23:16:58;;;;;;;26.17;15.13;;;;;;;1.81;100.00;100140.50;10492047;28;20049;-71
2020/12/13 23:22:00;;;;;;;25.02;14.38;;;;;;;1.70;100.00;100130.41;10491298;28;20052;-70
2020/12/13 23:27:01;;;;;;;36.38;17.90;;;;;;;1.65;100.00;100109.03;10490454;28;20083;-70
2020/12/13 23:32:02;;;;;;;29.95;17.67;;;;;;;1.59;100.00;100092.84;10471417;28;20104;-70
2020/12/13 23:37:03;;;;;;;34.08;17.77;;;;;;;1.53;100.00;100070.63;10491537;28;20072;-69
2020/12/13 23:42:06;;;;;;;41.17;21.17;;;;;;;1.59;100.00;100075.63;10491617;28;20061;-70
2020/12/13 23:47:07;;;;;;;46.08;25.83;;;;;;;1.65;100.00;100079.81;10473797;28;20052;-70
2020/12/13 23:52:09;;;;;;;54.13;26.98;;;;;;;1.67;100.00;100102.13;10490960;28;20484;-70
2020/12/13 23:57:14;;;;;;;49.92;27.40;;;;;;;1.66;100.00;100115.03;10491441;28;20113;-70
